AFR1426 LFPG-LIPZ
Flight info
| Callsign | AFR1426 |
|---|---|
| Flight time | 1h 26m |
| Altitude | 35000 |
| Route | LANVI DCT DEVDI DCT RIPUS DCT RESIA DCT ADOSA L612 ALBET |
| Aircraft | A320/M-SDE3FGHIRWY/LB1 |
Departure
| Time | 2026-04-30 18:42 |
|---|---|
| Airport | Charles de Gaulle International Airport (LFPG) |
Arrival
| Time | 2026-04-30 20:09 |
|---|---|
| Airport | Venice Marco Polo Airport (LIPZ) |
| Time | Latitude | Longitude | Altitude | Speed | Heading |
|---|---|---|---|---|---|
| 2026-04-30 18:10 | 49.01711 | 2.54092 | 363 ft | 0 kts | 210° |
| 2026-04-30 18:28 | 49.01723 | 2.54102 | 363 ft | 2 kts | 208° |
| 2026-04-30 18:29 | 49.01736 | 2.54113 | 363 ft | 2 kts | 209° |
| 2026-04-30 18:29 | 49.01777 | 2.54145 | 364 ft | 2 kts | 209° |
| 2026-04-30 18:30 | 49.01803 | 2.54167 | 364 ft | 1 kts | 209° |
| 2026-04-30 18:30 | 49.01808 | 2.54177 | 364 ft | 1 kts | 270° |
| 2026-04-30 18:31 | 49.01808 | 2.54182 | 364 ft | 0 kts | 267° |
| 2026-04-30 18:31 | 49.01808 | 2.54181 | 364 ft | 0 kts | 267° |
| 2026-04-30 18:33 | 49.01808 | 2.54171 | 364 ft | 3 kts | 267° |
| 2026-04-30 18:33 | 49.01806 | 2.54114 | 363 ft | 7 kts | 267° |
| 2026-04-30 18:34 | 49.01801 | 2.54011 | 361 ft | 11 kts | 265° |
| 2026-04-30 18:34 | 49.01789 | 2.53831 | 360 ft | 11 kts | 265° |
| 2026-04-30 18:34 | 49.01781 | 2.53706 | 360 ft | 12 kts | 265° |
| 2026-04-30 18:35 | 49.01776 | 2.53584 | 360 ft | 10 kts | 267° |
| 2026-04-30 18:35 | 49.01772 | 2.53462 | 360 ft | 12 kts | 266° |
| 2026-04-30 18:35 | 49.01765 | 2.53341 | 363 ft | 10 kts | 265° |
| 2026-04-30 18:36 | 49.01748 | 2.53086 | 363 ft | 13 kts | 264° |
| 2026-04-30 18:36 | 49.01738 | 2.52942 | 363 ft | 13 kts | 264° |
| 2026-04-30 18:36 | 49.01727 | 2.52671 | 365 ft | 13 kts | 267° |
| 2026-04-30 18:37 | 49.01719 | 2.52537 | 368 ft | 12 kts | 265° |
| 2026-04-30 18:37 | 49.01712 | 2.52407 | 368 ft | 12 kts | 267° |
| 2026-04-30 18:37 | 49.01707 | 2.52264 | 367 ft | 14 kts | 265° |
| 2026-04-30 18:37 | 49.01698 | 2.52107 | 367 ft | 15 kts | 266° |
| 2026-04-30 18:38 | 49.01689 | 2.51927 | 365 ft | 17 kts | 265° |
| 2026-04-30 18:38 | 49.01679 | 2.51737 | 363 ft | 19 kts | 266° |
| 2026-04-30 18:38 | 49.01670 | 2.51569 | 359 ft | 16 kts | 266° |
| 2026-04-30 18:38 | 49.01660 | 2.51401 | 356 ft | 15 kts | 265° |
| 2026-04-30 18:39 | 49.01683 | 2.51287 | 355 ft | 11 kts | 332° |
| 2026-04-30 18:39 | 49.01752 | 2.51268 | 357 ft | 9 kts | 354° |
| 2026-04-30 18:39 | 49.01812 | 2.51261 | 358 ft | 8 kts | 357° |
| 2026-04-30 18:39 | 49.01868 | 2.51255 | 359 ft | 7 kts | 356° |
| 2026-04-30 18:40 | 49.01921 | 2.51248 | 360 ft | 7 kts | 359° |
| 2026-04-30 18:40 | 49.01968 | 2.51257 | 362 ft | 6 kts | 11° |
| 2026-04-30 18:40 | 49.02002 | 2.51285 | 362 ft | 4 kts | 39° |
| 2026-04-30 18:40 | 49.02024 | 2.51311 | 364 ft | 4 kts | 40° |
| 2026-04-30 18:41 | 49.02058 | 2.51364 | 365 ft | 9 kts | 63° |
| 2026-04-30 18:41 | 49.02070 | 2.51458 | 366 ft | 10 kts | 87° |
| 2026-04-30 18:41 | 49.02085 | 2.51879 | 369 ft | 75 kts | 85° |
| 2026-04-30 18:41 | 49.02152 | 2.53010 | 374 ft | 139 kts | 85° |
| 2026-04-30 18:42 | 49.02258 | 2.54698 | 685 ft | 168 kts | 88° |
| 2026-04-30 18:42 | 49.02475 | 2.58370 | 2267 ft | 176 kts | 88° |
| 2026-04-30 18:42 | 49.02560 | 2.60215 | 3033 ft | 184 kts | 88° |
| 2026-04-30 18:45 | 49.02725 | 2.85741 | 10108 ft | 277 kts | 99° |
| 2026-04-30 18:45 | 49.02442 | 2.88668 | 10690 ft | 285 kts | 99° |
| 2026-04-30 18:45 | 49.02158 | 2.91733 | 10999 ft | 301 kts | 98° |
| 2026-04-30 18:46 | 49.01868 | 2.94965 | 11476 ft | 311 kts | 98° |
| 2026-04-30 18:46 | 49.01579 | 2.98227 | 12124 ft | 313 kts | 98° |
| 2026-04-30 18:46 | 49.01292 | 3.01491 | 12779 ft | 315 kts | 98° |
| 2026-04-30 18:46 | 49.01002 | 3.04797 | 13411 ft | 317 kts | 98° |
| 2026-04-30 18:47 | 49.00711 | 3.08115 | 14019 ft | 319 kts | 98° |
| 2026-04-30 18:47 | 49.00417 | 3.11470 | 14593 ft | 322 kts | 98° |
| 2026-04-30 18:47 | 49.00119 | 3.14862 | 15159 ft | 325 kts | 98° |
| 2026-04-30 18:47 | 48.99818 | 3.18273 | 15691 ft | 328 kts | 98° |
| 2026-04-30 18:48 | 48.99513 | 3.21730 | 16251 ft | 331 kts | 98° |
| 2026-04-30 18:48 | 48.99207 | 3.25173 | 16776 ft | 334 kts | 98° |
| 2026-04-30 18:48 | 48.98893 | 3.28704 | 17306 ft | 336 kts | 98° |
| 2026-04-30 18:48 | 48.98581 | 3.32197 | 17811 ft | 338 kts | 98° |
| 2026-04-30 18:49 | 48.98262 | 3.35750 | 18331 ft | 340 kts | 98° |
| 2026-04-30 18:49 | 48.97941 | 3.39314 | 18872 ft | 342 kts | 98° |
| 2026-04-30 18:49 | 48.97618 | 3.42891 | 19411 ft | 343 kts | 98° |
| 2026-04-30 18:49 | 48.97288 | 3.46516 | 19947 ft | 344 kts | 98° |
| 2026-04-30 18:50 | 48.96961 | 3.50114 | 20445 ft | 345 kts | 98° |
| 2026-04-30 18:50 | 48.96633 | 3.53702 | 20922 ft | 347 kts | 98° |
| 2026-04-30 18:50 | 48.96301 | 3.57329 | 21401 ft | 348 kts | 98° |
| 2026-04-30 18:50 | 48.95962 | 3.61006 | 21854 ft | 350 kts | 98° |
| 2026-04-30 18:51 | 48.95625 | 3.64661 | 22313 ft | 352 kts | 98° |
| 2026-04-30 18:51 | 48.95284 | 3.68334 | 22756 ft | 354 kts | 98° |
| 2026-04-30 18:51 | 48.94935 | 3.72088 | 23193 ft | 356 kts | 98° |
| 2026-04-30 18:51 | 48.94589 | 3.75791 | 23627 ft | 357 kts | 98° |
| 2026-04-30 18:52 | 48.94239 | 3.79539 | 24043 ft | 359 kts | 98° |
| 2026-04-30 18:52 | 48.93891 | 3.83263 | 24432 ft | 361 kts | 98° |
| 2026-04-30 18:52 | 48.93532 | 3.87066 | 24814 ft | 364 kts | 98° |
| 2026-04-30 18:52 | 48.93176 | 3.90843 | 25172 ft | 366 kts | 98° |
| 2026-04-30 18:53 | 48.92807 | 3.94726 | 25546 ft | 368 kts | 98° |
| 2026-04-30 18:53 | 48.92444 | 3.98544 | 25923 ft | 370 kts | 98° |
| 2026-04-30 18:53 | 48.92074 | 4.02405 | 26297 ft | 372 kts | 98° |
| 2026-04-30 18:53 | 48.91698 | 4.06318 | 26636 ft | 374 kts | 98° |
| 2026-04-30 18:54 | 48.91322 | 4.10207 | 26942 ft | 377 kts | 98° |
| 2026-04-30 18:54 | 48.90937 | 4.14190 | 27287 ft | 379 kts | 98° |
| 2026-04-30 18:54 | 48.90536 | 4.18109 | 27602 ft | 381 kts | 101° |
| 2026-04-30 18:54 | 48.89869 | 4.22013 | 27892 ft | 384 kts | 107° |
| 2026-04-30 18:55 | 48.88889 | 4.25803 | 28208 ft | 387 kts | 114° |
| 2026-04-30 18:55 | 48.86334 | 4.33040 | 28837 ft | 391 kts | 117° |
| 2026-04-30 18:55 | 48.85015 | 4.36636 | 29120 ft | 393 kts | 117° |
| 2026-04-30 18:56 | 48.82335 | 4.43930 | 29659 ft | 397 kts | 117° |
| 2026-04-30 18:56 | 48.80996 | 4.47567 | 29916 ft | 399 kts | 117° |
| 2026-04-30 18:56 | 48.79641 | 4.51246 | 30205 ft | 401 kts | 117° |
| 2026-04-30 18:57 | 48.76914 | 4.58642 | 30703 ft | 404 kts | 117° |
| 2026-04-30 18:57 | 48.75555 | 4.62322 | 30956 ft | 406 kts | 117° |
| 2026-04-30 18:57 | 48.74158 | 4.66096 | 31190 ft | 408 kts | 118° |
| 2026-04-30 18:58 | 48.71382 | 4.73579 | 31648 ft | 411 kts | 118° |
| 2026-04-30 18:58 | 48.69967 | 4.77389 | 31875 ft | 413 kts | 118° |
| 2026-04-30 18:58 | 48.68560 | 4.81170 | 32134 ft | 414 kts | 118° |
| 2026-04-30 18:59 | 48.65751 | 4.88710 | 32760 ft | 412 kts | 118° |
| 2026-04-30 19:00 | 48.61543 | 4.99952 | 33620 ft | 411 kts | 118° |
| 2026-04-30 19:00 | 48.60147 | 5.03671 | 33850 ft | 411 kts | 118° |
| 2026-04-30 19:00 | 48.57312 | 5.11210 | 34297 ft | 413 kts | 118° |
| 2026-04-30 19:01 | 48.54480 | 5.18716 | 34694 ft | 414 kts | 118° |
| 2026-04-30 19:01 | 48.53056 | 5.22483 | 34855 ft | 415 kts | 118° |
| 2026-04-30 19:02 | 48.50193 | 5.30038 | 35130 ft | 417 kts | 118° |
| 2026-04-30 19:03 | 48.44430 | 5.45188 | 35168 ft | 419 kts | 118° |
| 2026-04-30 19:04 | 48.38641 | 5.60321 | 35165 ft | 419 kts | 118° |
| 2026-04-30 19:05 | 48.32806 | 5.75480 | 35163 ft | 419 kts | 118° |
| 2026-04-30 19:06 | 48.27586 | 5.91030 | 35167 ft | 418 kts | 114° |
| 2026-04-30 19:06 | 48.23840 | 6.02801 | 35176 ft | 418 kts | 114° |
| 2026-04-30 19:07 | 48.20073 | 6.14584 | 35175 ft | 419 kts | 113° |
| 2026-04-30 19:08 | 48.15027 | 6.30271 | 35176 ft | 420 kts | 113° |
| 2026-04-30 19:09 | 48.11223 | 6.42047 | 35178 ft | 419 kts | 113° |
| 2026-04-30 19:09 | 48.08684 | 6.49874 | 35176 ft | 420 kts | 113° |
| 2026-04-30 19:10 | 48.03579 | 6.65534 | 35191 ft | 421 kts | 114° |
| 2026-04-30 19:11 | 47.99724 | 6.77296 | 35181 ft | 421 kts | 113° |
| 2026-04-30 19:12 | 47.97164 | 6.85081 | 35181 ft | 422 kts | 113° |
| 2026-04-30 19:12 | 47.94564 | 6.92966 | 35178 ft | 422 kts | 113° |
| 2026-04-30 19:13 | 47.89386 | 7.08585 | 35170 ft | 423 kts | 113° |
| 2026-04-30 19:14 | 47.86766 | 7.16447 | 35171 ft | 423 kts | 113° |
| 2026-04-30 19:14 | 47.84151 | 7.24277 | 35173 ft | 424 kts | 113° |
| 2026-04-30 19:15 | 47.81533 | 7.32094 | 35167 ft | 423 kts | 113° |
| 2026-04-30 19:15 | 47.77584 | 7.43834 | 35173 ft | 423 kts | 113° |
| 2026-04-30 19:16 | 47.74925 | 7.51565 | 35175 ft | 424 kts | 115° |
| 2026-04-30 19:17 | 47.70018 | 7.62588 | 35184 ft | 428 kts | 122° |
| 2026-04-30 19:17 | 47.64723 | 7.73252 | 35190 ft | 429 kts | 123° |
| 2026-04-30 19:18 | 47.59421 | 7.83898 | 35181 ft | 430 kts | 123° |
| 2026-04-30 19:19 | 47.55873 | 7.90995 | 35184 ft | 430 kts | 122° |
| 2026-04-30 19:19 | 47.50549 | 8.01615 | 35182 ft | 430 kts | 123° |
| 2026-04-30 19:20 | 47.46998 | 8.08674 | 35184 ft | 431 kts | 122° |
| 2026-04-30 19:21 | 47.41620 | 8.19327 | 35190 ft | 431 kts | 122° |
| 2026-04-30 19:22 | 47.34456 | 8.33462 | 35194 ft | 432 kts | 122° |
| 2026-04-30 19:23 | 47.23684 | 8.54695 | 35200 ft | 433 kts | 121° |
| 2026-04-30 19:24 | 47.18398 | 8.65420 | 35202 ft | 434 kts | 122° |
| 2026-04-30 19:25 | 47.09505 | 8.83329 | 35214 ft | 434 kts | 122° |
| 2026-04-30 19:26 | 47.02378 | 8.97583 | 35215 ft | 435 kts | 122° |
| 2026-04-30 19:27 | 46.96995 | 9.08301 | 35189 ft | 436 kts | 121° |
| 2026-04-30 19:28 | 46.91599 | 9.19005 | 35204 ft | 438 kts | 121° |
| 2026-04-30 19:29 | 46.84363 | 9.33296 | 35215 ft | 440 kts | 121° |
| 2026-04-30 19:30 | 46.77100 | 9.47566 | 35223 ft | 441 kts | 121° |
| 2026-04-30 19:31 | 46.69780 | 9.61871 | 35206 ft | 441 kts | 121° |
| 2026-04-30 19:31 | 46.64268 | 9.72598 | 35209 ft | 443 kts | 122° |
| 2026-04-30 19:32 | 46.60566 | 9.79780 | 35238 ft | 445 kts | 122° |
| 2026-04-30 19:32 | 46.56872 | 9.86923 | 35245 ft | 446 kts | 122° |
| 2026-04-30 19:33 | 46.53133 | 9.94135 | 35251 ft | 447 kts | 122° |
| 2026-04-30 19:33 | 46.49314 | 10.01196 | 35240 ft | 450 kts | 126° |
| 2026-04-30 19:34 | 46.44935 | 10.07731 | 35240 ft | 455 kts | 133° |
| 2026-04-30 19:35 | 46.37651 | 10.16553 | 35207 ft | 458 kts | 136° |
| 2026-04-30 19:35 | 46.32782 | 10.22356 | 35000 ft | 452 kts | 135° |
| 2026-04-30 19:35 | 46.30344 | 10.25258 | 34459 ft | 451 kts | 135° |
| 2026-04-30 19:36 | 46.27943 | 10.28117 | 33887 ft | 450 kts | 135° |
| 2026-04-30 19:36 | 46.25534 | 10.30983 | 33354 ft | 448 kts | 135° |
| 2026-04-30 19:36 | 46.20751 | 10.36669 | 32174 ft | 447 kts | 134° |
| 2026-04-30 19:37 | 46.18353 | 10.39516 | 31554 ft | 447 kts | 134° |
| 2026-04-30 19:37 | 46.15979 | 10.42330 | 30965 ft | 446 kts | 134° |
| 2026-04-30 19:37 | 46.13605 | 10.45136 | 30513 ft | 441 kts | 134° |
| 2026-04-30 19:37 | 46.11246 | 10.47924 | 30042 ft | 436 kts | 134° |
| 2026-04-30 19:38 | 46.08933 | 10.50662 | 29507 ft | 433 kts | 134° |
| 2026-04-30 19:38 | 46.06629 | 10.53382 | 28978 ft | 429 kts | 134° |
| 2026-04-30 19:38 | 46.04307 | 10.56123 | 28407 ft | 427 kts | 134° |
| 2026-04-30 19:38 | 46.02052 | 10.58780 | 27838 ft | 425 kts | 134° |
| 2026-04-30 19:39 | 45.99751 | 10.61488 | 27292 ft | 422 kts | 135° |
| 2026-04-30 19:39 | 45.97501 | 10.64131 | 26756 ft | 419 kts | 134° |
| 2026-04-30 19:39 | 45.95248 | 10.66776 | 26192 ft | 418 kts | 135° |
| 2026-04-30 19:39 | 45.93020 | 10.69388 | 25676 ft | 415 kts | 135° |
| 2026-04-30 19:40 | 45.90780 | 10.72008 | 25151 ft | 412 kts | 135° |
| 2026-04-30 19:40 | 45.88563 | 10.74605 | 24601 ft | 410 kts | 136° |
| 2026-04-30 19:40 | 45.86382 | 10.77153 | 24067 ft | 407 kts | 136° |
| 2026-04-30 19:40 | 45.84202 | 10.79696 | 23562 ft | 404 kts | 136° |
| 2026-04-30 19:41 | 45.82030 | 10.82230 | 23058 ft | 401 kts | 136° |
| 2026-04-30 19:41 | 45.79879 | 10.84734 | 22582 ft | 398 kts | 136° |
| 2026-04-30 19:41 | 45.77749 | 10.87214 | 22087 ft | 395 kts | 136° |
| 2026-04-30 19:41 | 45.75619 | 10.89687 | 21605 ft | 392 kts | 136° |
| 2026-04-30 19:42 | 45.73521 | 10.92124 | 21137 ft | 389 kts | 136° |
| 2026-04-30 19:42 | 45.71423 | 10.94557 | 20694 ft | 386 kts | 136° |
| 2026-04-30 19:42 | 45.69340 | 10.96971 | 20266 ft | 383 kts | 136° |
| 2026-04-30 19:42 | 45.67300 | 10.99333 | 19833 ft | 380 kts | 136° |
| 2026-04-30 19:43 | 45.65331 | 11.01799 | 19379 ft | 374 kts | 130° |
| 2026-04-30 19:43 | 45.63627 | 11.04551 | 18931 ft | 368 kts | 122° |
| 2026-04-30 19:43 | 45.62185 | 11.07525 | 18494 ft | 363 kts | 118° |
| 2026-04-30 19:44 | 45.59521 | 11.13542 | 17618 ft | 359 kts | 117° |
| 2026-04-30 19:44 | 45.58191 | 11.16534 | 17196 ft | 356 kts | 117° |
| 2026-04-30 19:44 | 45.56853 | 11.19524 | 16762 ft | 355 kts | 118° |
| 2026-04-30 19:44 | 45.55534 | 11.22463 | 16345 ft | 353 kts | 118° |
| 2026-04-30 19:45 | 45.54214 | 11.25397 | 15943 ft | 350 kts | 118° |
| 2026-04-30 19:45 | 45.52916 | 11.28278 | 15549 ft | 347 kts | 118° |
| 2026-04-30 19:45 | 45.51612 | 11.31169 | 15150 ft | 345 kts | 118° |
| 2026-04-30 19:45 | 45.50316 | 11.34040 | 14727 ft | 343 kts | 118° |
| 2026-04-30 19:46 | 45.49028 | 11.36888 | 14329 ft | 341 kts | 118° |
| 2026-04-30 19:46 | 45.47755 | 11.39699 | 13934 ft | 338 kts | 118° |
| 2026-04-30 19:46 | 45.46485 | 11.42499 | 13529 ft | 336 kts | 118° |
| 2026-04-30 19:46 | 45.45227 | 11.45275 | 13153 ft | 334 kts | 118° |
| 2026-04-30 19:47 | 45.43964 | 11.48060 | 12777 ft | 332 kts | 119° |
| 2026-04-30 19:47 | 45.43116 | 11.49842 | 12553 ft | 330 kts | 122° |
| 2026-04-30 19:47 | 45.41216 | 11.53231 | 12119 ft | 326 kts | 128° |
| 2026-04-30 19:47 | 45.39711 | 11.55627 | 11765 ft | 324 kts | 128° |
| 2026-04-30 19:48 | 45.38214 | 11.57986 | 11420 ft | 322 kts | 129° |
| 2026-04-30 19:48 | 45.36711 | 11.60354 | 11081 ft | 318 kts | 129° |
| 2026-04-30 19:48 | 45.35276 | 11.62682 | 10917 ft | 308 kts | 123° |
| 2026-04-30 19:48 | 45.34415 | 11.65335 | 10731 ft | 293 kts | 98° |
| 2026-04-30 19:49 | 45.34346 | 11.68169 | 10534 ft | 281 kts | 83° |
| 2026-04-30 19:49 | 45.34659 | 11.73681 | 9869 ft | 280 kts | 83° |
| 2026-04-30 19:49 | 45.34804 | 11.76414 | 9533 ft | 279 kts | 84° |
| 2026-04-30 19:50 | 45.34936 | 11.79152 | 9205 ft | 277 kts | 84° |
| 2026-04-30 19:50 | 45.35041 | 11.81887 | 8869 ft | 277 kts | 90° |
| 2026-04-30 19:50 | 45.34584 | 11.84542 | 8512 ft | 281 kts | 116° |
| 2026-04-30 19:50 | 45.33411 | 11.86751 | 8242 ft | 281 kts | 129° |
| 2026-04-30 19:51 | 45.32099 | 11.88785 | 7976 ft | 278 kts | 130° |
| 2026-04-30 19:51 | 45.30642 | 11.90515 | 7806 ft | 275 kts | 153° |
| 2026-04-30 19:51 | 45.28801 | 11.90942 | 7635 ft | 272 kts | 188° |
| 2026-04-30 19:51 | 45.27092 | 11.89864 | 7454 ft | 267 kts | 220° |
| 2026-04-30 19:52 | 45.25758 | 11.88087 | 7211 ft | 264 kts | 224° |
| 2026-04-30 19:52 | 45.24435 | 11.86279 | 6902 ft | 264 kts | 223° |
| 2026-04-30 19:52 | 45.23094 | 11.84510 | 6601 ft | 263 kts | 222° |
| 2026-04-30 19:52 | 45.21747 | 11.82781 | 6334 ft | 262 kts | 222° |
| 2026-04-30 19:53 | 45.20399 | 11.81076 | 6063 ft | 260 kts | 221° |
| 2026-04-30 19:53 | 45.19060 | 11.79392 | 5910 ft | 254 kts | 221° |
| 2026-04-30 19:53 | 45.17759 | 11.77759 | 5768 ft | 247 kts | 221° |
| 2026-04-30 19:53 | 45.16478 | 11.76154 | 5646 ft | 240 kts | 220° |
| 2026-04-30 19:54 | 45.15244 | 11.74609 | 5521 ft | 234 kts | 220° |
| 2026-04-30 19:54 | 45.14037 | 11.73099 | 5357 ft | 230 kts | 220° |
| 2026-04-30 19:54 | 45.12844 | 11.71622 | 5141 ft | 227 kts | 216° |
| 2026-04-30 19:54 | 45.11441 | 11.70714 | 4888 ft | 221 kts | 181° |
| 2026-04-30 19:55 | 45.09994 | 11.71028 | 4710 ft | 209 kts | 150° |
| 2026-04-30 19:55 | 45.08873 | 11.72265 | 4499 ft | 201 kts | 128° |
| 2026-04-30 19:55 | 45.07968 | 11.73763 | 4273 ft | 200 kts | 127° |
| 2026-04-30 19:55 | 45.07072 | 11.75277 | 4049 ft | 199 kts | 123° |
| 2026-04-30 19:56 | 45.06537 | 11.77016 | 3845 ft | 192 kts | 95° |
| 2026-04-30 19:56 | 45.06650 | 11.78833 | 3719 ft | 184 kts | 70° |
| 2026-04-30 19:56 | 45.07272 | 11.80311 | 3665 ft | 172 kts | 50° |
| 2026-04-30 19:56 | 45.08147 | 11.81476 | 3349 ft | 174 kts | 44° |
| 2026-04-30 19:57 | 45.09062 | 11.82607 | 3111 ft | 174 kts | 44° |
| 2026-04-30 19:57 | 45.09872 | 11.83607 | 3100 ft | 174 kts | 44° |
| 2026-04-30 19:57 | 45.10783 | 11.84734 | 3091 ft | 175 kts | 44° |
| 2026-04-30 19:57 | 45.11691 | 11.85866 | 3092 ft | 176 kts | 44° |
| 2026-04-30 19:58 | 45.12613 | 11.87020 | 3093 ft | 176 kts | 44° |
| 2026-04-30 19:58 | 45.13530 | 11.88170 | 3092 ft | 176 kts | 44° |
| 2026-04-30 19:58 | 45.14449 | 11.89324 | 3090 ft | 177 kts | 44° |
| 2026-04-30 19:58 | 45.15377 | 11.90491 | 3095 ft | 177 kts | 44° |
| 2026-04-30 19:59 | 45.16293 | 11.91643 | 3098 ft | 175 kts | 44° |
| 2026-04-30 19:59 | 45.17200 | 11.92784 | 3094 ft | 174 kts | 44° |
| 2026-04-30 19:59 | 45.19019 | 11.95063 | 3092 ft | 175 kts | 44° |
| 2026-04-30 20:00 | 45.19929 | 11.96203 | 3090 ft | 175 kts | 44° |
| 2026-04-30 20:00 | 45.20867 | 11.97310 | 3099 ft | 176 kts | 41° |
| 2026-04-30 20:00 | 45.21826 | 11.98408 | 3106 ft | 176 kts | 42° |
| 2026-04-30 20:00 | 45.22774 | 11.99514 | 3107 ft | 176 kts | 43° |
| 2026-04-30 20:01 | 45.24637 | 12.01772 | 3109 ft | 177 kts | 44° |
| 2026-04-30 20:01 | 45.25563 | 12.02928 | 3108 ft | 177 kts | 44° |
| 2026-04-30 20:01 | 45.26486 | 12.04100 | 3105 ft | 178 kts | 44° |
| 2026-04-30 20:02 | 45.28330 | 12.06480 | 3113 ft | 178 kts | 45° |
| 2026-04-30 20:02 | 45.29244 | 12.07669 | 3109 ft | 176 kts | 45° |
| 2026-04-30 20:03 | 45.31044 | 12.10022 | 3112 ft | 177 kts | 45° |
| 2026-04-30 20:03 | 45.31959 | 12.11218 | 3104 ft | 177 kts | 44° |
| 2026-04-30 20:03 | 45.32862 | 12.12395 | 3098 ft | 178 kts | 44° |
| 2026-04-30 20:03 | 45.33779 | 12.13591 | 3106 ft | 179 kts | 44° |
| 2026-04-30 20:04 | 45.34698 | 12.14784 | 3107 ft | 179 kts | 44° |
| 2026-04-30 20:04 | 45.35614 | 12.15972 | 3108 ft | 178 kts | 44° |
| 2026-04-30 20:04 | 45.36535 | 12.17165 | 3107 ft | 178 kts | 44° |
| 2026-04-30 20:05 | 45.38364 | 12.19527 | 2868 ft | 173 kts | 44° |
| 2026-04-30 20:05 | 45.39230 | 12.20643 | 2631 ft | 164 kts | 44° |
| 2026-04-30 20:05 | 45.40820 | 12.22691 | 2217 ft | 144 kts | 45° |
| 2026-04-30 20:06 | 45.41539 | 12.23618 | 2022 ft | 137 kts | 44° |
| 2026-04-30 20:06 | 45.42237 | 12.24519 | 1866 ft | 134 kts | 44° |
| 2026-04-30 20:06 | 45.42929 | 12.25412 | 1697 ft | 133 kts | 45° |
| 2026-04-30 20:06 | 45.43611 | 12.26292 | 1529 ft | 133 kts | 45° |
| 2026-04-30 20:07 | 45.44302 | 12.27181 | 1354 ft | 133 kts | 45° |
| 2026-04-30 20:07 | 45.44991 | 12.28069 | 1177 ft | 133 kts | 45° |
| 2026-04-30 20:07 | 45.46366 | 12.29839 | 818 ft | 134 kts | 45° |
| 2026-04-30 20:08 | 45.47055 | 12.30725 | 637 ft | 134 kts | 45° |
| 2026-04-30 20:08 | 45.47755 | 12.31627 | 460 ft | 135 kts | 45° |
| 2026-04-30 20:08 | 45.48450 | 12.32516 | 300 ft | 135 kts | 45° |
| 2026-04-30 20:08 | 45.49157 | 12.33409 | 127 ft | 136 kts | 45° |
| 2026-04-30 20:09 | 45.49842 | 12.34322 | 10 ft | 131 kts | 46° |
| 2026-04-30 20:09 | 45.50296 | 12.34913 | 9 ft | 47 kts | 40° |
| 2026-04-30 20:09 | 45.50559 | 12.35072 | 9 ft | 16 kts | 12° |
| 2026-04-30 20:10 | 45.50603 | 12.34972 | 8 ft | 8 kts | 271° |
| 2026-04-30 20:10 | 45.50604 | 12.34871 | 7 ft | 11 kts | 271° |
| 2026-04-30 20:10 | 45.50605 | 12.34781 | 7 ft | 7 kts | 264° |
| 2026-04-30 20:11 | 45.50532 | 12.34663 | 8 ft | 8 kts | 220° |
| 2026-04-30 20:11 | 45.50485 | 12.34605 | 9 ft | 9 kts | 221° |
| 2026-04-30 20:11 | 45.50431 | 12.34538 | 9 ft | 11 kts | 221° |
| 2026-04-30 20:12 | 45.50353 | 12.34368 | 9 ft | 9 kts | 316° |
| 2026-04-30 20:12 | 45.50422 | 12.34351 | 9 ft | 10 kts | 356° |
| 2026-04-30 20:12 | 45.50496 | 12.34345 | 9 ft | 10 kts | 356° |
| 2026-04-30 20:13 | 45.50549 | 12.34327 | 9 ft | 5 kts | 296° |
| 2026-04-30 20:13 | 45.50551 | 12.34273 | 9 ft | 5 kts | 266° |
| 2026-04-30 20:13 | 45.50549 | 12.34219 | 9 ft | 4 kts | 266° |
| 2026-04-30 20:13 | 45.50549 | 12.34206 | 9 ft | 0 kts | 266° |